Decoded Metar for KCAG (CRAIG in CO, USA) (IATA:CAG) | Meteo·Mobile Aviation Weather
aviador You're here:

KCAG Decoded Metar

CRAIG in CO, USA
Report Time2019-01-19 01:53:00
UTC Time2019-01-19 02:18:43
Flight Rules vfr VFR
WindCalm
Visibility9999 m
Phenomena:N/A
Clouds:Few 027 Hf
Broken 045 Hf
Overcast 055 Hf
Expected CloudBase > 800 ft AGL from Temp-Dew spread
Ceiling4,500 ft
Temp-2°C (ISA -5)
Dew Point-4°C (86% RH)
AAT-4.5°C
QNH1023 hPa
Density Alt5,364 ft
Elevation6,191 ft
Report Wrong Elevation
Raw Report
KCAG 190153Z AUTO 00000KT 10SM FEW027 BKN045 OVC055 M02/M04 A3022
RMK AO2 SNB03E24 SLP260 P0000 T10171044 TSNO=

Extra information for KCAG:More info

Metar Taf Metar & Taf Last 4 Metars F.Rules Stats Wind Profile Meteogram Temp Stats Airport Information Weather charts Add Link Nearby VenuesMetar ALERT Operation Metar Decoded Social comments

AIRNAV info for KCAG